Time;durP1;ratioP1;P1;durP2;ratioP2;P2;SDS_P1;SDS_P2;PMS_P1;PMS_P2;Temp;Humidity;BMP_temperature;BMP_pressure;BME280_temperature;BME280_humidity;BME280_pressure;Samples;Min_cycle;Max_cycle;Signal;HPM_P1;HPM_P2
2022/10/08 00:01:02;;;;;;;13.43;12.33;;;;;;;11.28;100.00;99686.22;6247915;22;20688;-90
2022/10/08 00:03:31;;;;;;;14.03;12.83;;;;;;;11.25;100.00;99690.16;6223010;22;20239;-90
2022/10/08 00:06:08;;;;;;;14.43;13.23;;;;;;;11.18;100.00;99696.63;6273310;22;20204;-91
2022/10/08 00:08:36;;;;;;;14.73;13.23;;;;;;;11.20;100.00;99687.31;6184522;22;20200;-90
2022/10/08 00:11:08;;;;;;;14.13;12.83;;;;;;;11.11;100.00;99679.78;6274848;22;20210;-89
2022/10/08 00:13:40;;;;;;;13.87;12.63;;;;;;;11.08;100.00;99689.09;6275152;22;20207;-90
2022/10/08 00:16:11;;;;;;;13.93;12.63;;;;;;;11.03;100.00;99684.41;6273730;22;20625;-90
2022/10/08 00:18:39;;;;;;;14.77;13.27;;;;;;;10.92;100.00;99693.16;6274572;22;20207;-90
2022/10/08 00:21:16;;;;;;;15.40;13.90;;;;;;;10.92;100.00;99697.69;6222700;22;20287;-92
2022/10/08 00:23:43;;;;;;;14.37;13.17;;;;;;;10.91;100.00;99691.53;6274316;22;20200;-89
2022/10/08 00:26:10;;;;;;;14.10;12.87;;;;;;;10.91;100.00;99691.53;6246931;22;20207;-89
2022/10/08 00:28:41;;;;;;;14.67;13.37;;;;;;;10.86;100.00;99677.16;6274461;22;20259;-89
2022/10/08 00:31:11;;;;;;;15.17;13.87;;;;;;;10.86;100.00;99688.69;6247625;22;20599;-89
2022/10/08 00:33:38;;;;;;;15.00;13.60;;;;;;;10.82;100.00;99681.31;6222287;22;20224;-89
2022/10/08 00:36:08;;;;;;;15.33;14.00;;;;;;;10.80;100.00;99684.19;6246744;22;20219;-89
2022/10/08 00:38:35;;;;;;;15.97;14.43;;;;;;;10.78;100.00;99698.88;6247339;22;20715;-89
2022/10/08 00:41:04;;;;;;;15.23;13.83;;;;;;;10.76;100.00;99685.69;6247225;22;20657;-84
2022/10/08 00:43:41;;;;;;;14.37;13.07;;;;;;;10.71;100.00;99700.78;6247388;22;20282;-86
2022/10/08 00:46:24;;;;;;;14.97;13.53;;;;;;;10.64;100.00;99683.94;6257275;22;20274;-85
2022/10/08 00:48:58;;;;;;;15.47;14.07;;;;;;;10.57;100.00;99687.47;6273964;22;20253;-87
2022/10/08 00:51:25;;;;;;;14.70;13.40;;;;;;;10.57;100.00;99703.56;6221386;22;20532;-85
2022/10/08 00:53:52;;;;;;;15.43;13.87;;;;;;;10.52;100.00;99695.34;6246808;22;20204;-85
2022/10/08 00:56:19;;;;;;;15.03;13.63;;;;;;;10.45;100.00;99691.88;6273032;22;20218;-85
2022/10/08 00:58:47;;;;;;;15.37;13.93;;;;;;;10.47;100.00;99694.34;6247051;22;20211;-87
2022/10/08 01:01:13;;;;;;;14.97;13.63;;;;;;;10.41;100.00;99688.00;6246673;22;20653;-85
2022/10/08 01:03:40;;;;;;;15.27;13.97;;;;;;;10.38;100.00;99692.97;6273584;22;20447;-87
2022/10/08 01:06:29;;;;;;;15.77;14.10;;;;;;;10.34;100.00;99697.97;6246623;22;20239;-89
2022/10/08 01:09:07;;;;;;;14.73;13.37;;;;;;;10.30;100.00;99712.81;6247299;22;20270;-87
2022/10/08 01:11:48;;;;;;;14.93;13.50;;;;;;;10.29;100.00;99687.06;6246740;22;20218;-86
2022/10/08 01:14:24;;;;;;;14.70;13.40;;;;;;;10.24;100.00;99694.09;6273061;22;20257;-88
2022/10/08 01:17:08;;;;;;;15.60;14.10;;;;;;;10.22;100.00;99694.31;6273684;22;20207;-87
2022/10/08 01:20:13;;;;;;;14.73;13.43;;;;;;;10.19;100.00;99694.75;6247065;22;20212;-88
2022/10/08 01:22:54;;;;;;;15.23;13.83;;;;;;;10.18;100.00;99687.75;6273093;22;20204;-85
2022/10/08 01:25:32;;;;;;;15.50;14.00;;;;;;;10.06;100.00;99678.75;6273451;22;20208;-87
2022/10/08 01:28:02;;;;;;;15.30;13.90;;;;;;;10.07;100.00;99672.34;6247910;22;20204;-87
2022/10/08 01:30:31;;;;;;;15.27;13.87;;;;;;;10.10;100.00;99686.13;6273070;22;20254;-85
2022/10/08 01:33:13;;;;;;;14.37;13.17;;;;;;;10.09;100.00;99683.66;6246519;22;20204;-85
2022/10/08 01:35:43;;;;;;;15.10;13.60;;;;;;;10.08;100.00;99682.81;6246739;22;20210;-85
2022/10/08 01:38:14;;;;;;;15.00;13.70;;;;;;;10.12;100.00;99670.66;6246357;22;20529;-85
2022/10/08 01:40:41;;;;;;;13.87;12.67;;;;;;;10.05;100.00;99667.22;6246314;22;20228;-85
2022/10/08 01:43:10;;;;;;;14.73;13.33;;;;;;;10.07;100.00;99648.25;6246778;22;20204;-89
2022/10/08 01:45:40;;;;;;;14.33;13.10;;;;;;;10.02;100.00;99681.03;6246109;22;20242;-83
2022/10/08 01:48:15;;;;;;;14.13;12.97;;;;;;;10.01;100.00;99684.72;6230518;22;20210;-83
2022/10/08 01:51:08;;;;;;;15.27;13.67;;;;;;;10.00;100.00;99672.38;6246452;22;20632;-83
2022/10/08 01:53:38;;;;;;;13.60;12.30;;;;;;;10.02;100.00;99686.38;6246383;22;20712;-84
2022/10/08 01:56:07;;;;;;;14.37;13.00;;;;;;;10.00;100.00;99683.09;6245972;22;20204;-88
2022/10/08 01:58:38;;;;;;;13.77;12.47;;;;;;;10.06;100.00;99679.56;6246351;22;20210;-85
2022/10/08 02:01:09;;;;;;;13.57;12.17;;;;;;;10.01;100.00;99681.22;6274155;22;20640;-83
2022/10/08 02:03:36;;;;;;;13.40;12.30;;;;;;;9.96;100.00;99681.06;6246410;22;20283;-84
2022/10/08 02:06:03;;;;;;;14.17;12.87;;;;;;;9.98;100.00;99700.41;6272372;22;20200;-83
2022/10/08 02:08:30;;;;;;;12.90;11.60;;;;;;;9.94;100.00;99681.25;6221023;22;20212;-84
2022/10/08 02:10:57;;;;;;;14.10;12.80;;;;;;;9.90;100.00;99681.91;6257135;22;20550;-83
2022/10/08 02:13:23;;;;;;;14.07;12.67;;;;;;;9.81;100.00;99672.47;6272247;22;20211;-85
2022/10/08 02:15:59;;;;;;;13.67;12.47;;;;;;;9.78;100.00;99680.94;6246521;22;20199;-88
2022/10/08 02:18:46;;;;;;;13.20;11.80;;;;;;;9.73;100.00;99676.22;6273089;22;20204;-85
2022/10/08 02:21:18;;;;;;;12.97;11.77;;;;;;;9.72;100.00;99685.28;6246872;22;20592;-87
2022/10/08 02:23:51;;;;;;;12.07;10.97;;;;;;;9.66;100.00;99638.78;6246961;22;20552;-85
2022/10/08 02:26:26;;;;;;;12.77;11.57;;;;;;;9.68;100.00;99658.16;6245593;22;20288;-85
2022/10/08 02:28:59;;;;;;;12.10;11.00;;;;;;;9.68;100.00;99663.50;6246844;22;20293;-89
2022/10/08 02:31:46;;;;;;;13.37;12.13;;;;;;;9.70;100.00;99652.59;6246973;22;20231;-86
2022/10/08 02:34:36;;;;;;;12.47;11.47;;;;;;;9.66;100.00;99660.19;6274304;22;20205;-86
2022/10/08 02:37:08;;;;;;;12.63;11.53;;;;;;;9.59;100.00;99659.41;6248115;22;20589;-85
2022/10/08 02:39:37;;;;;;;12.87;11.67;;;;;;;9.60;100.00;99658.41;6246611;22;20232;-87
2022/10/08 02:42:09;;;;;;;12.47;11.37;;;;;;;9.56;100.00;99675.91;6246251;22;20204;-83
2022/10/08 02:44:40;;;;;;;12.97;11.77;;;;;;;9.51;100.00;99673.03;6247203;22;20670;-83
2022/10/08 02:47:10;;;;;;;12.97;11.70;;;;;;;9.49;100.00;99660.91;6246927;22;20247;-83
2022/10/08 02:49:40;;;;;;;13.67;12.37;;;;;;;9.44;100.00;99677.56;6247441;22;20175;-85
2022/10/08 02:52:08;;;;;;;13.00;11.90;;;;;;;9.43;100.00;99672.44;6273358;22;20204;-83
2022/10/08 02:54:38;;;;;;;13.27;12.13;;;;;;;9.44;100.00;99668.72;6244757;22;20200;-83
2022/10/08 02:57:15;;;;;;;13.50;12.40;;;;;;;9.45;100.00;99670.38;6246955;22;20215;-82
2022/10/08 02:59:42;;;;;;;12.83;11.73;;;;;;;9.39;100.00;99679.22;6246885;22;20232;-82
2022/10/08 03:02:11;;;;;;;13.37;12.13;;;;;;;9.33;100.00;99656.84;6272937;22;20208;-82
2022/10/08 03:04:44;;;;;;;12.80;11.50;;;;;;;9.29;100.00;99647.59;6246813;22;20208;-82
2022/10/08 03:07:12;;;;;;;12.20;11.07;;;;;;;9.28;100.00;99680.72;6246774;22;20711;-82
2022/10/08 03:09:41;;;;;;;11.77;10.77;;;;;;;9.25;100.00;99686.47;6273843;22;20206;-81
2022/10/08 03:12:08;;;;;;;12.37;11.27;;;;;;;9.32;100.00;99684.63;6247376;22;20204;-85
2022/10/08 03:14:42;;;;;;;11.93;10.73;;;;;;;9.28;100.00;99673.50;6251767;22;20214;-85
2022/10/08 03:17:12;;;;;;;11.67;10.60;;;;;;;9.26;100.00;99656.03;6252829;22;20255;-86
2022/10/08 03:19:38;;;;;;;11.10;10.10;;;;;;;9.21;100.00;99678.06;6282524;22;20279;-86
2022/10/08 03:22:06;;;;;;;11.97;10.70;;;;;;;9.20;100.00;99670.25;6228351;22;20264;-85
2022/10/08 03:24:34;;;;;;;11.40;10.40;;;;;;;9.16;100.00;99669.00;6256422;22;20208;-84
2022/10/08 03:27:01;;;;;;;11.27;10.33;;;;;;;9.12;100.00;99673.97;6257380;22;20205;-84
2022/10/08 03:29:27;;;;;;;11.00;9.97;;;;;;;9.07;100.00;99673.78;6254548;22;20208;-86
2022/10/08 03:31:54;;;;;;;11.47;10.47;;;;;;;9.08;100.00;99661.22;6251535;22;20176;-84
2022/10/08 03:34:23;;;;;;;11.60;10.50;;;;;;;9.04;100.00;99655.50;6273519;22;20269;-83
2022/10/08 03:36:50;;;;;;;10.83;9.93;;;;;;;8.98;100.00;99690.22;6274046;22;20200;-85
2022/10/08 03:39:17;;;;;;;11.33;10.33;;;;;;;8.99;100.00;99694.56;6273890;22;20212;-83
2022/10/08 03:41:43;;;;;;;11.83;10.63;;;;;;;9.11;100.00;99690.19;6273259;22;20212;-84
2022/10/08 03:44:11;;;;;;;11.87;10.77;;;;;;;8.99;100.00;99694.56;6247228;22;20215;-82
2022/10/08 03:46:37;;;;;;;11.67;10.47;;;;;;;8.98;100.00;99712.44;6273924;22;20214;-82
2022/10/08 03:49:04;;;;;;;11.37;10.27;;;;;;;8.90;100.00;99675.25;6273623;22;20726;-83
2022/10/08 03:51:31;;;;;;;10.90;9.97;;;;;;;8.87;100.00;99685.50;6275128;22;20524;-83
2022/10/08 03:53:58;;;;;;;11.20;10.30;;;;;;;8.83;100.00;99690.44;6276923;22;20206;-82
2022/10/08 03:56:24;;;;;;;11.67;10.67;;;;;;;8.85;100.00;99675.03;6275701;22;20199;-83
2022/10/08 03:58:57;;;;;;;11.87;10.87;;;;;;;8.88;100.00;99697.84;6277290;22;20234;-82
2022/10/08 04:01:26;;;;;;;11.83;10.67;;;;;;;8.86;100.00;99710.59;6251563;22;20208;-83
2022/10/08 04:03:53;;;;;;;10.90;9.90;;;;;;;8.81;100.00;99684.50;6252513;22;20632;-83
2022/10/08 04:06:20;;;;;;;11.27;10.17;;;;;;;8.76;100.00;99690.47;6276620;22;20266;-81
2022/10/08 04:08:46;;;;;;;11.13;10.03;;;;;;;8.75;100.00;99694.16;6276723;22;20222;-82
2022/10/08 04:11:14;;;;;;;12.10;11.00;;;;;;;8.73;100.00;99679.34;6278220;22;20204;-83
2022/10/08 04:13:42;;;;;;;10.47;9.57;;;;;;;8.70;100.00;99696.63;6251214;22;20768;-81
2022/10/08 04:16:11;;;;;;;10.87;9.87;;;;;;;8.70;100.00;99691.28;6275209;22;20684;-82
2022/10/08 04:18:38;;;;;;;11.17;10.17;;;;;;;8.76;100.00;99705.66;6278856;22;20235;-81
2022/10/08 04:21:08;;;;;;;10.47;9.47;;;;;;;8.67;100.00;99683.69;6275759;22;20182;-81
2022/10/08 04:23:36;;;;;;;11.37;10.27;;;;;;;8.63;100.00;99697.66;6248939;22;20271;-81
2022/10/08 04:26:03;;;;;;;11.43;9.83;;;;;;;8.59;100.00;99691.06;6274850;22;20200;-81
2022/10/08 04:28:30;;;;;;;11.43;10.37;;;;;;;8.54;100.00;99697.00;6248704;22;20278;-81
2022/10/08 04:31:09;;;;;;;12.20;11.00;;;;;;;8.50;100.00;99692.28;6275408;22;20279;-81
2022/10/08 04:33:36;;;;;;;14.00;12.63;;;;;;;8.55;100.00;99701.34;6275211;22;20212;-81
2022/10/08 04:36:07;;;;;;;13.30;12.00;;;;;;;8.62;100.00;99688.00;6247941;22;20204;-80
2022/10/08 04:38:34;;;;;;;12.80;11.60;;;;;;;8.52;100.00;99696.41;6248553;22;20208;-81
2022/10/08 04:41:05;;;;;;;12.33;11.13;;;;;;;8.51;100.00;99702.78;6275506;22;20231;-81
2022/10/08 04:43:33;;;;;;;12.70;11.50;;;;;;;8.48;100.00;99705.88;6248716;22;20204;-80
2022/10/08 04:46:00;;;;;;;11.73;10.53;;;;;;;8.46;100.00;99704.41;6273654;22;20710;-80
2022/10/08 04:48:26;;;;;;;12.13;10.97;;;;;;;8.44;100.00;99704.63;6248095;22;20258;-80
2022/10/08 04:50:55;;;;;;;11.97;10.77;;;;;;;8.42;100.00;99698.66;6248572;22;20201;-81
2022/10/08 04:53:22;;;;;;;12.50;11.30;;;;;;;8.38;100.00;99694.75;6274953;22;20675;-81
2022/10/08 04:55:48;;;;;;;15.30;13.70;;;;;;;8.43;100.00;99702.97;6275663;22;20234;-80
2022/10/08 04:58:15;;;;;;;14.37;12.67;;;;;;;8.37;100.00;99701.94;6275458;22;20204;-81
2022/10/08 05:00:41;;;;;;;13.87;12.40;;;;;;;8.40;100.00;99706.03;6275485;22;20220;-80
2022/10/08 05:03:08;;;;;;;13.03;11.73;;;;;;;8.39;100.00;99702.56;6275475;22;20748;-81
2022/10/08 05:05:39;;;;;;;12.53;11.23;;;;;;;8.38;100.00;99705.44;6275155;22;20200;-80
2022/10/08 05:08:06;;;;;;;11.83;10.67;;;;;;;8.42;100.00;99708.53;6275100;22;20552;-81
2022/10/08 05:10:32;;;;;;;13.70;11.63;;;;;;;8.40;100.00;99728.22;6248313;22;20587;-80
2022/10/08 05:12:59;;;;;;;12.43;11.23;;;;;;;8.44;100.00;99711.81;6275200;22;20215;-81
2022/10/08 05:15:26;;;;;;;12.10;10.90;;;;;;;8.46;100.00;99710.56;6275445;22;20216;-80
2022/10/08 05:17:53;;;;;;;11.77;10.77;;;;;;;8.52;100.00;99715.09;6274595;22;20212;-80
2022/10/08 05:20:20;;;;;;;12.37;11.10;;;;;;;8.60;100.00;99712.22;6274685;22;20204;-80
2022/10/08 05:22:46;;;;;;;11.97;10.97;;;;;;;8.73;100.00;99725.59;6274872;22;20204;-80
2022/10/08 05:25:14;;;;;;;12.57;11.47;;;;;;;8.82;100.00;99731.53;6275246;22;20263;-81
2022/10/08 05:27:40;;;;;;;13.00;11.70;;;;;;;8.94;100.00;99734.44;6274941;22;20208;-81
2022/10/08 05:30:07;;;;;;;12.73;11.57;;;;;;;9.02;100.00;99729.69;6273921;22;20204;-81
2022/10/08 05:32:34;;;;;;;12.87;11.70;;;;;;;9.05;100.00;99726.59;6274822;22;20204;-80
2022/10/08 05:35:00;;;;;;;13.93;12.53;;;;;;;9.15;100.00;99724.31;6274179;22;20239;-81
2022/10/08 05:37:27;;;;;;;13.13;11.97;;;;;;;9.27;100.00;99724.53;6274064;22;20270;-81
2022/10/08 05:39:53;;;;;;;13.73;12.37;;;;;;;9.38;100.00;99728.41;6273808;22;20200;-81
2022/10/08 05:42:20;;;;;;;13.73;12.53;;;;;;;9.48;100.00;99737.63;6273099;22;20204;-82
2022/10/08 05:44:46;;;;;;;13.53;12.33;;;;;;;9.59;100.00;99728.16;6273616;22;20211;-81
2022/10/08 05:47:13;;;;;;;14.07;12.77;;;;;;;9.70;100.00;99738.19;6273692;22;20249;-81
2022/10/08 05:49:39;;;;;;;14.10;12.80;;;;;;;9.83;100.00;99738.16;6273866;22;20207;-82
2022/10/08 05:52:06;;;;;;;14.87;13.40;;;;;;;9.96;100.00;99742.63;6258222;22;20208;-81
2022/10/08 05:54:33;;;;;;;26.10;22.00;;;;;;;10.11;100.00;99748.53;6265339;22;20201;-81
2022/10/08 05:56:59;;;;;;;17.40;15.70;;;;;;;10.23;100.00;99762.91;6243258;23;20196;-82
2022/10/08 05:59:26;;;;;;;16.20;14.60;;;;;;;10.38;100.00;99759.94;6216017;23;20212;-81
2022/10/08 06:01:52;;;;;;;17.17;14.67;;;;;;;10.49;100.00;99764.63;6242827;22;20200;-82
2022/10/08 06:04:19;;;;;;;17.83;14.87;;;;;;;10.64;100.00;99765.13;6242273;22;20719;-81
2022/10/08 06:06:46;;;;;;;17.23;14.73;;;;;;;10.77;100.00;99757.00;6216198;23;20209;-81
2022/10/08 06:09:15;;;;;;;19.03;15.17;;;;;;;10.96;100.00;99739.91;6215957;23;20215;-81
2022/10/08 06:11:42;;;;;;;19.20;14.10;;;;;;;11.07;100.00;99767.06;6242624;22;20211;-83
2022/10/08 06:14:10;;;;;;;15.80;14.03;;;;;;;11.17;100.00;99753.97;6241875;22;20704;-83
2022/10/08 06:16:37;;;;;;;18.93;14.90;;;;;;;11.28;100.00;99770.19;6266156;22;20209;-83
2022/10/08 06:19:05;;;;;;;20.07;14.90;;;;;;;11.38;100.00;99767.78;6216194;23;20209;-84
2022/10/08 06:21:32;;;;;;;17.30;15.17;;;;;;;11.55;100.00;99780.66;6240809;23;20204;-82
2022/10/08 06:24:01;;;;;;;19.33;15.23;;;;;;;11.65;100.00;99773.72;6216076;23;20192;-84
2022/10/08 06:26:33;;;;;;;20.27;16.37;;;;;;;11.78;100.00;99762.88;6241084;22;20209;-85
2022/10/08 06:29:04;;;;;;;22.13;17.57;;;;;;;11.88;100.00;99778.47;6241778;23;20235;-83
2022/10/08 06:31:32;;;;;;;21.03;16.37;;;;;;;12.01;100.00;99785.53;6265163;22;20217;-83
2022/10/08 06:34:01;;;;;;;20.27;15.67;;;;;;;12.17;100.00;99784.94;6215443;23;20205;-83
2022/10/08 06:36:28;;;;;;;23.90;15.57;;;;;;;12.28;100.00;99793.03;6241293;23;20236;-83
2022/10/08 06:38:59;;;;;;;21.77;15.07;;;;;;;12.42;100.00;99792.84;6240492;23;20219;-83
2022/10/08 06:41:29;;;;;;;22.87;16.20;;;;;;;12.48;100.00;99787.41;6265494;22;20185;-84
2022/10/08 06:43:55;;;;;;;21.60;15.83;;;;;;;12.62;100.00;99796.09;6265405;22;20200;-84
2022/10/08 06:46:22;;;;;;;26.13;17.30;;;;;;;12.77;100.00;99789.25;6241170;22;20213;-84
2022/10/08 06:48:48;;;;;;;23.43;17.60;;;;;;;12.90;100.00;99792.78;6241411;22;20210;-83
2022/10/08 06:51:16;;;;;;;27.57;19.50;;;;;;;13.05;100.00;99788.59;6240464;22;20213;-83
2022/10/08 06:53:46;;;;;;;26.77;19.23;;;;;;;13.16;100.00;99792.38;6225331;22;20263;-82
2022/10/08 06:56:14;;;;;;;29.70;19.90;;;;;;;13.28;100.00;99812.06;6241813;22;20212;-82
2022/10/08 06:58:42;;;;;;;27.90;19.83;;;;;;;13.41;100.00;99805.63;6269572;22;20205;-81
2022/10/08 07:01:13;;;;;;;34.07;20.63;;;;;;;13.53;100.00;99801.09;6272004;22;20219;-82
2022/10/08 07:03:40;;;;;;;32.23;21.00;;;;;;;13.70;100.00;99803.88;6271540;22;20670;-81
2022/10/08 07:06:09;;;;;;;32.63;22.00;;;;;;;13.80;100.00;99821.06;6270732;22;20216;-82
2022/10/08 07:08:36;;;;;;;39.03;23.10;;;;;;;13.88;100.00;99799.16;6270599;22;20203;-80
2022/10/08 07:11:08;;;;;;;42.33;25.47;;;;;;;14.01;100.00;99792.69;6267728;22;20206;-81
2022/10/08 07:13:35;;;;;;;34.37;23.90;;;;;;;14.07;100.00;99797.13;6243927;22;20225;-83
2022/10/08 07:16:04;;;;;;;37.30;26.60;;;;;;;14.18;100.00;99787.38;6271799;22;20212;-81
2022/10/08 07:18:34;;;;;;;40.10;26.03;;;;;;;14.28;100.00;99803.72;6245450;22;20276;-82
2022/10/08 07:21:01;;;;;;;48.67;30.93;;;;;;;14.42;100.00;99795.16;6271619;22;20658;-82
2022/10/08 07:23:27;;;;;;;45.47;29.73;;;;;;;14.44;100.00;99800.31;6270833;22;20234;-82
2022/10/08 07:25:59;;;;;;;40.57;29.83;;;;;;;14.50;100.00;99796.69;6270417;22;20211;-84
2022/10/08 07:28:28;;;;;;;49.80;30.97;;;;;;;14.45;100.00;99796.56;6271303;22;20208;-82
2022/10/08 07:30:54;;;;;;;41.50;29.70;;;;;;;14.49;100.00;99798.56;6270144;22;20654;-80
2022/10/08 07:33:21;;;;;;;45.53;29.30;;;;;;;14.58;100.00;99803.56;6270765;22;20200;-80
2022/10/08 07:35:48;;;;;;;44.43;28.73;;;;;;;14.61;100.00;99806.56;6271313;22;20215;-80
2022/10/08 07:38:17;;;;;;;45.63;28.63;;;;;;;14.75;100.00;99807.09;6270356;22;20253;-80
2022/10/08 07:40:45;;;;;;;49.13;28.33;;;;;;;14.62;100.00;99808.22;6245771;22;20202;-80
2022/10/08 07:43:12;;;;;;;39.00;27.73;;;;;;;14.64;100.00;99806.09;6273553;22;20188;-79
2022/10/08 07:45:45;;;;;;;41.23;27.87;;;;;;;14.72;100.00;99813.81;6273986;22;20271;-80
2022/10/08 07:48:11;;;;;;;40.00;27.17;;;;;;;14.84;100.00;99819.94;6245485;22;20600;-80
2022/10/08 07:50:38;;;;;;;44.07;27.17;;;;;;;14.66;100.00;99830.94;6273822;22;20228;-80
2022/10/08 07:53:04;;;;;;;40.50;27.47;;;;;;;14.39;100.00;99811.00;6273056;22;20210;-80
2022/10/08 07:55:31;;;;;;;44.57;29.57;;;;;;;14.62;100.00;99824.41;6273900;22;20538;-80
2022/10/08 07:57:58;;;;;;;42.67;27.17;;;;;;;14.63;100.00;99825.22;6273524;22;20214;-80
2022/10/08 08:00:24;;;;;;;43.33;27.50;;;;;;;14.71;100.00;99824.81;6273367;22;20211;-81
2022/10/08 08:02:51;;;;;;;43.60;27.20;;;;;;;14.54;100.00;99820.22;6272836;22;20214;-81
2022/10/08 08:05:18;;;;;;;43.83;28.37;;;;;;;14.68;100.00;99815.34;6273713;22;20218;-82
2022/10/08 08:07:45;;;;;;;42.73;26.43;;;;;;;14.64;100.00;99816.91;6274502;22;20730;-81
2022/10/08 08:10:18;;;;;;;47.40;27.83;;;;;;;14.17;100.00;99812.69;6273345;22;20251;-81
2022/10/08 08:12:45;;;;;;;43.57;26.47;;;;;;;14.46;100.00;99800.91;6273819;22;20205;-80
2022/10/08 08:15:12;;;;;;;43.47;27.13;;;;;;;14.35;100.00;99801.72;6272379;22;20205;-81
2022/10/08 08:17:38;;;;;;;49.63;27.73;;;;;;;14.04;100.00;99806.50;6273467;22;20206;-84
2022/10/08 08:20:05;;;;;;;48.40;27.30;;;;;;;14.33;100.00;99812.75;6272967;22;20260;-81
2022/10/08 08:22:32;;;;;;;46.67;27.87;;;;;;;14.50;100.00;99807.47;6272016;22;20203;-83
2022/10/08 08:24:58;;;;;;;40.00;27.20;;;;;;;14.57;100.00;99813.50;6273789;22;20206;-82
2022/10/08 08:27:25;;;;;;;44.27;28.43;;;;;;;14.57;100.00;99805.41;6272816;22;20229;-82
2022/10/08 08:29:52;;;;;;;45.33;28.90;;;;;;;14.55;100.00;99802.16;6273274;22;20296;-81
2022/10/08 08:32:42;;;;;;;48.60;27.90;;;;;;;14.40;100.00;99807.25;6273143;22;20543;-86
2022/10/08 08:35:10;;;;;;;45.27;27.87;;;;;;;14.33;100.00;99801.97;6273574;22;20218;-82
2022/10/08 08:37:36;;;;;;;44.33;29.00;;;;;;;14.19;100.00;99802.47;6247543;22;20200;-82
2022/10/08 08:40:03;;;;;;;45.97;28.53;;;;;;;14.66;100.00;99812.06;6273494;22;20202;-83
2022/10/08 08:42:43;;;;;;;45.83;28.47;;;;;;;14.37;100.00;99813.94;6272204;22;20226;-83
2022/10/08 08:45:21;;;;;;;49.93;28.67;;;;;;;14.21;100.00;99811.97;6246316;22;20220;-82
2022/10/08 08:48:22;;;;;;;49.47;29.30;;;;;;;14.39;100.00;99809.13;6272489;22;20220;-83
2022/10/08 08:50:52;;;;;;;42.53;27.40;;;;;;;14.60;100.00;99809.53;6247400;22;20534;-83
2022/10/08 08:53:19;;;;;;;38.73;26.80;;;;;;;14.77;100.00;99815.78;6274295;22;20204;-83
2022/10/08 08:55:48;;;;;;;43.03;27.83;;;;;;;14.93;100.00;99826.56;6273738;22;20276;-82
2022/10/08 08:58:24;;;;;;;43.00;27.93;;;;;;;14.63;100.00;99812.56;6246527;22;20202;-84
2022/10/08 09:00:57;;;;;;;44.90;28.83;;;;;;;14.89;100.00;99821.91;6273762;22;20300;-84
2022/10/08 09:03:39;;;;;;;39.00;26.37;;;;;;;14.69;100.00;99805.38;6246955;22;20208;-83
2022/10/08 09:06:11;;;;;;;38.97;27.40;;;;;;;14.98;100.00;99818.56;6246433;22;20212;-83
2022/10/08 09:08:46;;;;;;;38.57;26.67;;;;;;;14.42;100.00;99815.91;6222482;22;20218;-84
2022/10/08 09:11:15;;;;;;;38.37;26.00;;;;;;;14.92;100.00;99824.97;6247739;22;20196;-83
2022/10/08 09:14:14;;;;;;;34.67;26.97;;;;;;;15.20;100.00;99823.28;6246910;22;20213;-82
2022/10/08 09:16:41;;;;;;;36.97;27.77;;;;;;;15.04;100.00;99824.88;6207787;22;20212;-82
2022/10/08 09:19:08;;;;;;;37.60;27.13;;;;;;;14.91;100.00;99820.63;6274634;22;20244;-83
2022/10/08 09:21:34;;;;;;;38.77;27.53;;;;;;;14.64;100.00;99816.06;6247116;22;20247;-85
2022/10/08 09:24:01;;;;;;;42.17;28.77;;;;;;;14.75;100.00;99821.41;6246360;22;20207;-82
2022/10/08 09:26:35;;;;;;;38.67;28.57;;;;;;;14.95;100.00;99829.88;6273625;22;20203;-83
2022/10/08 09:29:03;;;;;;;36.73;27.67;;;;;;;14.97;100.00;99824.22;6272083;22;20712;-83
2022/10/08 09:31:39;;;;;;;40.67;29.50;;;;;;;14.82;100.00;99827.47;6246829;22;20232;-83
2022/10/08 09:34:16;;;;;;;36.20;27.80;;;;;;;15.23;100.00;99829.00;6272762;22;20293;-83
2022/10/08 09:36:49;;;;;;;36.30;28.03;;;;;;;15.37;100.00;99827.59;6273653;22;20650;-82
2022/10/08 09:39:19;;;;;;;38.60;28.60;;;;;;;15.47;100.00;99818.84;6246617;22;20289;-83
2022/10/08 09:41:47;;;;;;;34.33;26.10;;;;;;;15.96;100.00;99830.66;6246519;22;20233;-83
2022/10/08 09:44:20;;;;;;;31.97;25.90;;;;;;;16.39;100.00;99812.81;6245994;22;20264;-82
2022/10/08 09:46:48;;;;;;;34.37;26.30;;;;;;;16.79;100.00;99812.47;6273243;22;20294;-83
2022/10/08 09:49:32;;;;;;;33.23;26.17;;;;;;;17.01;100.00;99813.22;6245941;22;20211;-82
2022/10/08 09:52:18;;;;;;;38.73;29.33;;;;;;;17.25;100.00;99814.53;6257668;22;20207;-83
2022/10/08 09:54:47;;;;;;;38.77;30.17;;;;;;;17.06;100.00;99819.50;6245941;22;20665;-83
2022/10/08 09:57:16;;;;;;;33.13;27.83;;;;;;;17.31;100.00;99818.09;6246335;22;20602;-85
2022/10/08 09:59:50;;;;;;;32.53;28.17;;;;;;;17.44;100.00;99814.94;6246361;22;20287;-83
2022/10/08 10:02:27;;;;;;;34.43;28.57;;;;;;;17.33;100.00;99822.16;6245359;22;20613;-81
2022/10/08 10:04:54;;;;;;;33.73;28.40;;;;;;;17.40;100.00;99833.59;6273063;22;20199;-83
2022/10/08 10:07:21;;;;;;;31.17;27.77;;;;;;;17.68;100.00;99834.38;6272621;22;20691;-83
2022/10/08 10:09:53;;;;;;;32.47;28.30;;;;;;;17.97;100.00;99831.00;6246270;22;20208;-84
2022/10/08 10:12:48;;;;;;;32.93;29.30;;;;;;;17.95;100.00;99827.75;6245419;22;20219;-83
2022/10/08 10:15:19;;;;;;;31.43;27.80;;;;;;;18.03;100.00;99829.16;6243958;22;20695;-82
2022/10/08 10:17:57;;;;;;;35.03;28.63;;;;;;;18.18;100.00;99831.13;6273007;22;20223;-85
2022/10/08 10:20:29;;;;;;;31.57;28.13;;;;;;;18.52;100.00;99815.25;6245496;22;20267;-83
2022/10/08 10:23:07;;;;;;;34.23;29.17;;;;;;;18.41;100.00;99827.97;6246480;22;20208;-83
2022/10/08 10:25:59;;;;;;;31.50;27.93;;;;;;;18.78;100.00;99796.06;6272786;22;20266;-82
2022/10/08 10:28:52;;;;;;;29.67;26.47;;;;;;;19.23;94.43;99811.56;6272929;22;20283;-83
2022/10/08 10:31:24;;;;;;;29.93;26.77;;;;;;;19.41;93.42;99790.41;6273379;22;20257;-83
2022/10/08 10:34:05;;;;;;;28.80;25.73;;;;;;;19.59;91.99;99812.41;6257460;22;20232;-82
2022/10/08 10:36:46;;;;;;;30.37;27.17;;;;;;;19.40;90.36;99794.19;6245615;22;20304;-83
2022/10/08 10:39:25;;;;;;;30.67;26.90;;;;;;;19.27;91.30;99784.72;6272980;22;20214;-83
2022/10/08 10:42:12;;;;;;;27.53;24.93;;;;;;;19.10;93.40;99789.56;6273112;22;20671;-83
2022/10/08 10:44:57;;;;;;;29.37;26.40;;;;;;;18.48;100.00;99776.97;6245079;22;20218;-84
2022/10/08 10:47:29;;;;;;;28.07;25.27;;;;;;;18.29;100.00;99782.06;6246468;22;20185;-83
2022/10/08 10:50:00;;;;;;;26.90;24.40;;;;;;;18.10;100.00;99764.66;6246665;22;20208;-83
2022/10/08 10:52:51;;;;;;;27.00;24.37;;;;;;;18.11;100.00;99762.75;6272120;22;20195;-85
2022/10/08 10:55:34;;;;;;;27.63;24.77;;;;;;;18.01;100.00;99769.75;6245681;22;20267;-85
2022/10/08 10:58:13;;;;;;;27.40;24.80;;;;;;;17.95;100.00;99761.88;6220600;22;20665;-84
2022/10/08 11:01:00;;;;;;;26.07;23.53;;;;;;;17.89;100.00;99760.22;6270171;22;20208;-84
2022/10/08 11:04:00;;;;;;;26.63;24.23;;;;;;;17.90;100.00;99759.16;6271406;22;20208;-84
2022/10/08 11:06:48;;;;;;;25.57;23.27;;;;;;;17.91;100.00;99749.94;6217008;22;20287;-82
2022/10/08 11:09:30;;;;;;;26.17;23.77;;;;;;;17.86;100.00;99769.72;6269455;22;20207;-84
2022/10/08 11:12:02;;;;;;;26.67;24.17;;;;;;;17.92;100.00;99755.09;6268899;22;20208;-82
2022/10/08 11:14:31;;;;;;;25.20;22.80;;;;;;;17.76;100.00;99745.28;6244911;22;20448;-83
2022/10/08 11:17:11;;;;;;;25.17;22.97;;;;;;;17.87;100.00;99743.44;6272412;22;20211;-82
2022/10/08 11:20:02;;;;;;;25.30;23.17;;;;;;;17.90;100.00;99732.03;6246773;22;20208;-83
2022/10/08 11:22:54;;;;;;;23.97;21.77;;;;;;;17.88;100.00;99732.31;6204165;22;20257;-84
2022/10/08 11:25:35;;;;;;;25.57;23.20;;;;;;;17.97;100.00;99721.75;6274151;22;20205;-83
2022/10/08 11:28:35;;;;;;;23.80;21.70;;;;;;;18.03;100.00;99699.03;6249353;22;20230;-82
2022/10/08 11:31:06;;;;;;;23.57;21.47;;;;;;;18.19;100.00;99721.59;6246977;22;20667;-84